Time;durP1;ratioP1;P1;durP2;ratioP2;P2;SDS_P1;SDS_P2;PMS_P1;PMS_P2;Temp;Humidity;BMP_temperature;BMP_pressure;BME280_temperature;BME280_humidity;BME280_pressure;Samples;Min_cycle;Max_cycle;Signal;HPM_P1;HPM_P2
2023/10/12 00:00:52;;;;;;;;;;;13.80;99.90;;;;;;7323619;19;10415;-71
2023/10/12 00:03:21;;;;;;;;;;;13.90;99.90;;;;;;7322243;19;9194;-71
2023/10/12 00:05:50;;;;;;;;;;;13.90;99.90;;;;;;7323441;19;9567;-71
2023/10/12 00:08:30;;;;;;;;;;;13.90;99.90;;;;;;7322422;19;9289;-71
2023/10/12 00:11:06;;;;;;;;;;;14.00;99.90;;;;;;7323538;19;9238;-71
2023/10/12 00:13:41;;;;;;;;;;;14.00;99.90;;;;;;7322726;19;9412;-71
2023/10/12 00:16:10;;;;;;;;;;;14.20;99.90;;;;;;7313759;19;9323;-71
2023/10/12 00:18:38;;;;;;;;;;;14.20;99.90;;;;;;7320369;19;9273;-71
2023/10/12 00:21:14;;;;;;;;;;;14.20;99.90;;;;;;7324585;19;9157;-71
2023/10/12 00:23:46;;;;;;;;;;;14.20;99.90;;;;;;7322006;19;9316;-71
2023/10/12 00:26:16;;;;;;;;;;;14.10;99.90;;;;;;7323453;19;9275;-71
2023/10/12 00:28:45;;;;;;;;;;;14.20;99.90;;;;;;7319585;19;9182;-71
2023/10/12 00:31:18;;;;;;;;;;;14.20;99.90;;;;;;7318758;19;9130;-71
2023/10/12 00:33:48;;;;;;;;;;;14.20;99.90;;;;;;7311987;19;9913;-71
2023/10/12 00:36:22;;;;;;;;;;;14.30;99.90;;;;;;7317338;19;9601;-71
2023/10/12 00:38:56;;;;;;;;;;;14.30;99.90;;;;;;7322838;19;9076;-72
2023/10/12 00:41:29;;;;;;;;;;;14.20;99.90;;;;;;7323749;19;9233;-71
2023/10/12 00:44:08;;;;;;;;;;;14.20;99.90;;;;;;7319200;19;8944;-71
2023/10/12 00:46:58;;;;;;;;;;;14.10;99.90;;;;;;7320861;19;9198;-71
2023/10/12 00:49:32;;;;;;;;;;;14.10;99.90;;;;;;7320618;19;10432;-71
2023/10/12 00:52:14;;;;;;;;;;;14.10;99.90;;;;;;7321120;19;9619;-72
2023/10/12 00:54:55;;;;;;;;;;;14.10;99.90;;;;;;7320899;19;9554;-71
2023/10/12 00:57:24;;;;;;;;;;;14.10;99.90;;;;;;7320132;19;9266;-71
2023/10/12 00:59:53;;;;;;;;;;;14.20;99.90;;;;;;7321851;19;9530;-71
2023/10/12 01:02:29;;;;;;;;;;;14.30;99.90;;;;;;7320225;19;9631;-72
2023/10/12 01:05:01;;;;;;;;;;;14.30;99.90;;;;;;7323491;19;9225;-71
2023/10/12 01:07:34;;;;;;;;;;;14.40;99.90;;;;;;7320372;19;9354;-70
2023/10/12 01:10:10;;;;;;;;;;;14.30;99.90;;;;;;7321324;19;9652;-71
2023/10/12 01:12:39;;;;;;;;;;;14.30;99.90;;;;;;7319563;19;9443;-71
2023/10/12 01:15:11;;;;;;;;;;;14.40;99.90;;;;;;7312711;19;9253;-71
2023/10/12 01:17:41;;;;;;;;;;;14.30;99.90;;;;;;7319657;19;9349;-71
2023/10/12 01:20:16;;;;;;;;;;;14.10;99.90;;;;;;7318356;19;9644;-71
2023/10/12 01:22:48;;;;;;;;;;;14.10;99.90;;;;;;7320841;19;9505;-71
2023/10/12 01:25:28;;;;;;;;;;;14.00;99.90;;;;;;7322273;19;9326;-72
2023/10/12 01:28:01;;;;;;;;;;;13.90;99.90;;;;;;7315862;19;9280;-71
2023/10/12 01:30:35;;;;;;;;;;;13.90;99.90;;;;;;7318599;19;12059;-71
2023/10/12 01:33:06;;;;;;;;;;;13.80;99.90;;;;;;7320342;19;9587;-71
2023/10/12 01:35:38;;;;;;;;;;;13.70;99.90;;;;;;7316978;19;9713;-71
2023/10/12 01:38:14;;;;;;;;;;;13.70;99.90;;;;;;7320634;19;9486;-71
2023/10/12 01:40:53;;;;;;;;;;;13.70;99.90;;;;;;7319865;19;9242;-71
2023/10/12 01:43:27;;;;;;;;;;;13.70;99.90;;;;;;7318256;19;9530;-71
2023/10/12 01:46:00;;;;;;;;;;;13.70;99.90;;;;;;7309514;19;9557;-71
2023/10/12 01:48:33;;;;;;;;;;;13.80;99.90;;;;;;7320522;19;9276;-71
2023/10/12 01:51:10;;;;;;;;;;;13.70;99.90;;;;;;7312261;19;9362;-71
2023/10/12 01:53:41;;;;;;;;;;;13.80;99.90;;;;;;7319788;19;9587;-71
2023/10/12 01:56:11;;;;;;;;;;;13.80;99.90;;;;;;7316490;19;9284;-71
2023/10/12 01:58:43;;;;;;;;;;;13.90;99.90;;;;;;7312130;19;9249;-71
2023/10/12 02:01:18;;;;;;;;;;;13.90;99.90;;;;;;7317139;19;9182;-71
2023/10/12 02:03:48;;;;;;;;;;;13.90;99.90;;;;;;7321178;19;9471;-71
2023/10/12 02:06:17;;;;;;;;;;;13.90;99.90;;;;;;7320613;19;10322;-71
2023/10/12 02:08:52;;;;;;;;;;;14.00;99.90;;;;;;7321049;19;9454;-72
2023/10/12 02:11:37;;;;;;;;;;;14.00;99.90;;;;;;7318654;19;9235;-71
2023/10/12 02:14:10;;;;;;;;;;;13.80;99.90;;;;;;7317509;19;9761;-71
2023/10/12 02:16:52;;;;;;;;;;;13.80;99.90;;;;;;7311419;19;9336;-71
2023/10/12 02:19:31;;;;;;;;;;;13.70;99.90;;;;;;7318068;19;9329;-71
2023/10/12 02:22:03;;;;;;;;;;;13.70;99.90;;;;;;7319002;19;9525;-72
2023/10/12 02:24:36;;;;;;;;;;;13.70;99.90;;;;;;7318326;19;9269;-71
2023/10/12 02:27:07;;;;;;;;;;;13.70;99.90;;;;;;7318975;19;9296;-71
2023/10/12 02:29:38;;;;;;;;;;;13.70;99.90;;;;;;7317848;19;9513;-71
2023/10/12 02:32:22;;;;;;;;;;;13.70;99.90;;;;;;7308919;19;10696;-72
2023/10/12 02:34:56;;;;;;;;;;;13.70;99.90;;;;;;7317716;19;9250;-71
2023/10/12 02:37:27;;;;;;;;;;;13.70;99.90;;;;;;7317216;19;9697;-71
2023/10/12 02:39:59;;;;;;;;;;;13.60;99.90;;;;;;7317347;19;10486;-71
2023/10/12 02:45:19;;;;;;;;;;;13.60;99.90;;;;;;7318617;19;9159;-71
2023/10/12 02:47:50;;;;;;;;;;;13.60;99.90;;;;;;7317080;19;9291;-71
2023/10/12 02:50:27;;;;;;;;;;;13.60;99.90;;;;;;7315760;19;9633;-71
2023/10/12 02:52:56;;;;;;;;;;;13.60;99.90;;;;;;7317504;19;9495;-71
2023/10/12 02:55:40;;;;;;;;;;;13.50;99.90;;;;;;7315288;19;9650;-71
2023/10/12 02:58:19;;;;;;;;;;;13.50;99.90;;;;;;7311244;19;9246;-71
2023/10/12 03:00:54;;;;;;;;;;;13.50;99.90;;;;;;7316140;19;9170;-71
2023/10/12 03:03:26;;;;;;;;;;;13.40;99.90;;;;;;7317139;19;9279;-71
2023/10/12 03:05:58;;;;;;;;;;;13.30;99.90;;;;;;7318696;19;9493;-71
2023/10/12 03:08:30;;;;;;;;;;;13.30;99.90;;;;;;7317440;19;9421;-71
2023/10/12 03:11:12;;;;;;;;;;;13.30;99.90;;;;;;7310814;19;9396;-71
2023/10/12 03:14:00;;;;;;;;;;;13.30;99.90;;;;;;7317392;19;9312;-71
2023/10/12 03:16:33;;;;;;;;;;;13.30;99.90;;;;;;7307600;19;11644;-72
2023/10/12 03:19:17;;;;;;;;;;;13.30;99.90;;;;;;7315078;19;9370;-71
2023/10/12 03:21:51;;;;;;;;;;;13.30;99.90;;;;;;7317659;19;9249;-71
2023/10/12 03:24:25;;;;;;;;;;;13.30;99.90;;;;;;7314056;19;9526;-71
2023/10/12 03:27:11;;;;;;;;;;;13.20;99.90;;;;;;7318124;19;9455;-71
2023/10/12 03:29:43;;;;;;;;;;;13.20;99.90;;;;;;7317438;19;9485;-71
2023/10/12 03:32:16;;;;;;;;;;;13.20;99.90;;;;;;7315630;19;9175;-71
2023/10/12 03:34:56;;;;;;;;;;;13.20;99.90;;;;;;7313700;19;9138;-71
2023/10/12 03:40:49;;;;;;;;;;;13.10;99.90;;;;;;7317728;19;9226;-71
2023/10/12 03:43:10;;;;;;;;;;;13.10;99.90;;;;;;7317743;19;9542;-71
2023/10/12 03:45:50;;;;;;;;;;;13.00;99.90;;;;;;7322804;19;9214;-74
2023/10/12 03:48:47;;;;;;;;;;;13.10;99.90;;;;;;7326064;19;10098;-71
2023/10/12 03:51:25;;;;;;;;;;;13.10;99.90;;;;;;7323457;19;9222;-71
2023/10/12 03:54:11;;;;;;;;;;;13.00;99.90;;;;;;7324149;19;9534;-72
2023/10/12 03:56:40;;;;;;;;;;;13.10;99.90;;;;;;7324778;19;9312;-71
2023/10/12 03:59:12;;;;;;;;;;;13.10;99.90;;;;;;7324376;19;9604;-71
2023/10/12 04:01:43;;;;;;;;;;;13.10;99.90;;;;;;7319192;19;9484;-71
2023/10/12 04:04:20;;;;;;;;;;;13.20;99.90;;;;;;7321006;19;9498;-71
2023/10/12 04:07:15;;;;;;;;;;;13.20;99.90;;;;;;7321674;19;9306;-71
2023/10/12 04:09:51;;;;;;;;;;;13.10;99.90;;;;;;7322369;19;9515;-71
2023/10/12 04:12:36;;;;;;;;;;;13.20;99.90;;;;;;7321071;19;9395;-71
2023/10/12 04:15:26;;;;;;;;;;;13.10;99.90;;;;;;7319436;19;9183;-71
2023/10/12 04:17:59;;;;;;;;;;;13.10;99.90;;;;;;7321345;19;9469;-71
2023/10/12 04:20:29;;;;;;;;;;;13.10;99.90;;;;;;7320955;19;9194;-71
2023/10/12 04:23:43;;;;;;;;;;;13.10;99.90;;;;;;7321604;19;9419;-71
2023/10/12 04:26:27;;;;;;;;;;;13.00;99.90;;;;;;7320907;19;9140;-71
2023/10/12 04:28:56;;;;;;;;;;;13.00;99.90;;;;;;7309474;19;10711;-71
2023/10/12 04:31:34;;;;;;;;;;;13.00;99.90;;;;;;7306361;19;9290;-71
2023/10/12 04:34:07;;;;;;;;;;;12.90;99.90;;;;;;7318528;19;9862;-71
2023/10/12 04:36:44;;;;;;;;;;;12.90;99.90;;;;;;7322735;19;9377;-71
2023/10/12 04:39:15;;;;;;;;;;;12.90;99.90;;;;;;7323171;19;9125;-71
2023/10/12 04:41:55;;;;;;;;;;;13.10;99.90;;;;;;7319874;19;9277;-71
2023/10/12 04:44:40;;;;;;;;;;;13.10;99.90;;;;;;7324146;19;9449;-72
2023/10/12 04:47:19;;;;;;;;;;;13.10;99.90;;;;;;7322086;19;9292;-71
2023/10/12 04:49:57;;;;;;;;;;;13.10;99.90;;;;;;7314936;19;9266;-71
2023/10/12 04:52:32;;;;;;;;;;;13.00;99.90;;;;;;7319327;19;9347;-71
2023/10/12 04:55:20;;;;;;;;;;;13.00;99.90;;;;;;7311262;19;9466;-71
2023/10/12 04:58:10;;;;;;;;;;;13.00;99.90;;;;;;7322494;19;9222;-71
2023/10/12 05:03:27;;;;;;;;;;;13.10;99.90;;;;;;7318704;19;9125;-71
2023/10/12 05:06:04;;;;;;;;;;;13.10;99.90;;;;;;7319394;19;9661;-72
2023/10/12 05:08:34;;;;;;;;;;;13.10;99.90;;;;;;7322303;19;9124;-72
2023/10/12 05:11:06;;;;;;;;;;;13.10;99.90;;;;;;7320402;19;9469;-72
2023/10/12 05:13:43;;;;;;;;;;;13.10;99.90;;;;;;7321918;19;9464;-71
2023/10/12 05:16:14;;;;;;;;;;;13.10;99.90;;;;;;7318988;19;10688;-71
2023/10/12 05:18:47;;;;;;;;;;;13.20;99.90;;;;;;7313685;19;9661;-71
2023/10/12 05:21:16;;;;;;;;;;;13.30;99.90;;;;;;7321633;19;9119;-71
2023/10/12 05:23:45;;;;;;;;;;;13.30;99.90;;;;;;7321070;19;9249;-72
2023/10/12 05:26:14;;;;;;;;;;;13.30;99.90;;;;;;7320860;19;9251;-71
2023/10/12 05:28:57;;;;;;;;;;;13.20;99.90;;;;;;7319157;19;9270;-71
2023/10/12 05:31:28;;;;;;;;;;;13.10;99.90;;;;;;7317931;19;9474;-71
2023/10/12 05:36:47;;;;;;;;;;;13.00;99.90;;;;;;7320744;19;9423;-72
2023/10/12 05:39:16;;;;;;;;;;;13.00;99.90;;;;;;7320975;19;9690;-71
2023/10/12 05:41:46;;;;;;;;;;;12.80;99.90;;;;;;7320615;19;9493;-71
2023/10/12 05:44:26;;;;;;;;;;;12.70;99.90;;;;;;7322637;19;9263;-71
2023/10/12 05:46:59;;;;;;;;;;;12.60;99.90;;;;;;7317975;19;9303;-71
2023/10/12 05:49:33;;;;;;;;;;;12.50;99.90;;;;;;7315087;19;9283;-70
2023/10/12 05:52:05;;;;;;;;;;;12.40;99.90;;;;;;7320548;19;9479;-71
2023/10/12 05:54:35;;;;;;;;;;;12.40;99.90;;;;;;7319695;19;9225;-71
2023/10/12 05:57:09;;;;;;;;;;;12.30;99.90;;;;;;7320312;19;9292;-71
2023/10/12 05:59:39;;;;;;;;;;;12.30;99.90;;;;;;7314655;19;9277;-71
2023/10/12 06:02:10;;;;;;;;;;;12.20;99.90;;;;;;7315391;19;10564;-71
2023/10/12 06:04:42;;;;;;;;;;;12.30;99.90;;;;;;7316707;19;9297;-71
2023/10/12 06:07:11;;;;;;;;;;;12.10;99.90;;;;;;7314810;19;9261;-72
2023/10/12 06:09:41;;;;;;;;;;;12.10;99.90;;;;;;7315302;19;9633;-77
2023/10/12 06:12:12;;;;;;;;;;;12.10;99.90;;;;;;7316457;19;9324;-71
2023/10/12 06:14:52;;;;;;;;;;;12.10;99.90;;;;;;7319195;19;9296;-71
2023/10/12 06:17:28;;;;;;;;;;;12.00;99.90;;;;;;7318656;19;10341;-70
2023/10/12 06:20:10;;;;;;;;;;;12.10;99.90;;;;;;7319125;19;9324;-69
2023/10/12 06:22:39;;;;;;;;;;;12.00;99.90;;;;;;7320825;19;9251;-70
2023/10/12 06:25:11;;;;;;;;;;;12.00;99.90;;;;;;7316581;19;9228;-71
2023/10/12 06:27:40;;;;;;;;;;;12.00;99.90;;;;;;7316666;19;9287;-71
2023/10/12 06:30:23;;;;;;;;;;;12.00;99.90;;;;;;7314395;19;9286;-71
2023/10/12 06:32:52;;;;;;;;;;;12.00;99.90;;;;;;7318932;19;9288;-71
2023/10/12 06:35:28;;;;;;;;;;;11.90;99.90;;;;;;7317416;19;9271;-70
2023/10/12 06:38:15;;;;;;;;;;;11.90;99.90;;;;;;7320723;19;9536;-71
2023/10/12 06:40:48;;;;;;;;;;;11.90;99.90;;;;;;7317210;19;9234;-71
2023/10/12 06:46:15;;;;;;;;;;;11.90;99.90;;;;;;7314804;19;9261;-71
2023/10/12 06:48:44;;;;;;;;;;;11.90;99.90;;;;;;7319552;19;9479;-70
2023/10/12 06:51:16;;;;;;;;;;;11.90;99.90;;;;;;7317916;19;9218;-70
2023/10/12 06:53:51;;;;;;;;;;;11.90;99.90;;;;;;7319019;19;8944;-70
2023/10/12 06:56:27;;;;;;;;;;;12.00;99.90;;;;;;7319937;19;11819;-71
2023/10/12 06:59:09;;;;;;;;;;;12.00;99.90;;;;;;7319913;19;9312;-70
2023/10/12 07:01:51;;;;;;;;;;;12.10;99.90;;;;;;7306306;19;9487;-71
2023/10/12 07:04:21;;;;;;;;;;;12.10;99.90;;;;;;7318819;19;9447;-71
2023/10/12 07:07:00;;;;;;;;;;;12.20;99.90;;;;;;7318211;19;9583;-71
2023/10/12 07:09:38;;;;;;;;;;;12.20;99.90;;;;;;7316544;19;9243;-71
2023/10/12 07:12:08;;;;;;;;;;;12.20;99.90;;;;;;7319273;19;10259;-71
2023/10/12 07:14:43;;;;;;;;;;;12.30;99.90;;;;;;7319332;19;9547;-71
2023/10/12 07:17:12;;;;;;;;;;;12.40;99.90;;;;;;7312499;19;9385;-71
2023/10/12 07:19:46;;;;;;;;;;;12.70;99.90;;;;;;7317504;19;9473;-71
2023/10/12 07:22:18;;;;;;;;;;;13.10;99.90;;;;;;7324981;19;9177;-71
2023/10/12 07:24:52;;;;;;;;;;;13.60;99.90;;;;;;7322227;19;9491;-71
2023/10/12 07:27:22;;;;;;;;;;;14.20;99.90;;;;;;7324664;19;9720;-70
2023/10/12 07:30:02;;;;;;;;;;;14.70;99.90;;;;;;7323281;19;9305;-71
2023/10/12 07:32:31;;;;;;;;;;;15.00;99.90;;;;;;7322997;19;9490;-71
2023/10/12 07:35:07;;;;;;;;;;;15.30;99.90;;;;;;7322671;19;9535;-71
2023/10/12 07:37:42;;;;;;;;;;;15.60;99.90;;;;;;7324922;19;9434;-71
2023/10/12 07:40:17;;;;;;;;;;;15.80;99.90;;;;;;7321767;19;9411;-71
2023/10/12 07:42:48;;;;;;;;;;;15.80;99.90;;;;;;7323023;19;9265;-71
2023/10/12 07:45:17;;;;;;;;;;;16.00;99.90;;;;;;7326153;19;10406;-70
2023/10/12 07:47:58;;;;;;;;;;;16.00;99.90;;;;;;7323205;19;8968;-71
2023/10/12 07:50:30;;;;;;;;;;;16.00;99.90;;;;;;7322002;19;9253;-71
2023/10/12 07:53:22;;;;;;;;;;;15.90;99.90;;;;;;7323785;19;10316;-71
2023/10/12 07:55:55;;;;;;;;;;;15.70;99.90;;;;;;7318460;19;9458;-71
2023/10/12 07:58:29;;;;;;;;;;;15.30;99.90;;;;;;7324830;19;9185;-71
2023/10/12 08:01:12;;;;;;;;;;;15.10;99.90;;;;;;7315161;19;9218;-71
2023/10/12 08:03:50;;;;;;;;;;;14.90;99.90;;;;;;7323321;19;9571;-71
2023/10/12 08:06:19;;;;;;;;;;;14.90;99.90;;;;;;7321470;19;9490;-71
2023/10/12 08:08:51;;;;;;;;;;;15.00;99.90;;;;;;7322007;19;9240;-71
2023/10/12 08:11:34;;;;;;;;;;;15.10;99.90;;;;;;7321755;19;9523;-71
2023/10/12 08:14:19;;;;;;;;;;;15.10;99.90;;;;;;7324089;19;9495;-71
2023/10/12 08:17:24;;;;;;;;;;;15.20;99.90;;;;;;7322129;19;9274;-71
2023/10/12 08:19:42;;;;;;;;;;;15.10;99.90;;;;;;7322727;19;9261;-71
2023/10/12 08:22:17;;;;;;;;;;;15.00;99.90;;;;;;7325944;19;9257;-71
2023/10/12 08:24:52;;;;;;;;;;;15.00;99.90;;;;;;7325511;19;9206;-71
2023/10/12 08:27:21;;;;;;;;;;;15.00;99.90;;;;;;7324626;19;9277;-71
2023/10/12 08:30:11;;;;;;;;;;;14.90;99.90;;;;;;7323821;19;9183;-71
2023/10/12 08:32:42;;;;;;;;;;;14.90;99.90;;;;;;7316855;19;9354;-71
2023/10/12 08:35:35;;;;;;;;;;;14.80;99.90;;;;;;7322875;19;9546;-71
2023/10/12 08:38:11;;;;;;;;;;;14.60;99.90;;;;;;7324037;19;9534;-71
2023/10/12 08:43:52;;;;;;;;;;;14.40;99.90;;;;;;7318151;19;9258;-71
2023/10/12 08:52:17;;;;;;;;;;;14.10;99.90;;;;;;7323392;19;9475;-71
2023/10/12 08:54:53;;;;;;;;;;;14.10;99.90;;;;;;7322446;19;10414;-71
2023/10/12 08:57:38;;;;;;;;;;;14.20;99.90;;;;;;7322728;19;9496;-71
2023/10/12 09:00:24;;;;;;;;;;;14.30;99.90;;;;;;7318421;19;9482;-71
2023/10/12 09:02:58;;;;;;;;;;;14.40;99.90;;;;;;7319403;19;11389;-72
2023/10/12 09:05:29;;;;;;;;;;;14.50;99.90;;;;;;7320858;19;9263;-71
2023/10/12 09:08:39;;;;;;;;;;;14.50;99.90;;;;;;7322210;19;10730;-71
2023/10/12 09:10:57;;;;;;;;;;;14.60;99.90;;;;;;7319472;19;9186;-71
2023/10/12 09:13:33;;;;;;;;;;;14.70;99.90;;;;;;7322949;19;9590;-71
2023/10/12 09:16:07;;;;;;;;;;;14.80;99.90;;;;;;7320384;19;9413;-71
2023/10/12 09:18:43;;;;;;;;;;;14.80;99.90;;;;;;7322749;19;9477;-71
2023/10/12 09:21:23;;;;;;;;;;;14.90;99.90;;;;;;7320926;19;9487;-71
2023/10/12 09:23:58;;;;;;;;;;;15.00;99.90;;;;;;7316601;19;9257;-71
2023/10/12 09:26:34;;;;;;;;;;;15.00;99.90;;;;;;7320867;19;10891;-72
2023/10/12 09:29:20;;;;;;;;;;;15.10;99.90;;;;;;7321737;19;9198;-70
2023/10/12 09:37:44;;;;;;;;;;;15.20;99.90;;;;;;7319192;19;11786;-69
2023/10/12 09:40:24;;;;;;;;;;;15.20;99.90;;;;;;7318604;19;9535;-70
2023/10/12 09:42:59;;;;;;;;;;;15.20;99.90;;;;;;7320012;19;9389;-70
2023/10/12 09:45:41;;;;;;;;;;;15.20;99.90;;;;;;7318590;19;9377;-70
2023/10/12 09:48:18;;;;;;;;;;;15.20;99.90;;;;;;7317435;19;9167;-70
2023/10/12 09:50:53;;;;;;;;;;;15.40;99.90;;;;;;7319097;19;10385;-70
2023/10/12 09:53:28;;;;;;;;;;;15.40;99.90;;;;;;7321625;19;9125;-70
2023/10/12 09:56:15;;;;;;;;;;;15.40;99.90;;;;;;7319922;19;9469;-70
2023/10/12 09:59:03;;;;;;;;;;;15.40;99.90;;;;;;7320794;19;9517;-70
2023/10/12 10:01:49;;;;;;;;;;;15.30;99.90;;;;;;7317304;19;9738;-70
2023/10/12 10:04:34;;;;;;;;;;;15.50;99.90;;;;;;7313178;19;9544;-70
2023/10/12 10:07:17;;;;;;;;;;;15.60;99.90;;;;;;7317746;19;9425;-70
2023/10/12 10:09:48;;;;;;;;;;;15.70;99.90;;;;;;7296873;19;9607;-70
2023/10/12 10:12:20;;;;;;;;;;;15.70;99.90;;;;;;7316775;19;9373;-70
2023/10/12 10:14:54;;;;;;;;;;;15.70;99.90;;;;;;7318352;19;9656;-72
2023/10/12 10:17:36;;;;;;;;;;;15.80;99.90;;;;;;7313618;19;9340;-68
2023/10/12 10:20:45;;;;;;;;;;;15.90;99.90;;;;;;7314815;19;9259;-71
2023/10/12 10:23:14;;;;;;;;;;;16.00;99.90;;;;;;7315049;19;9233;-70
2023/10/12 10:25:56;;;;;;;;;;;16.20;99.90;;;;;;7319086;19;9303;-69
2023/10/12 10:28:28;;;;;;;;;;;16.30;99.90;;;;;;7316576;19;9143;-70
2023/10/12 10:31:01;;;;;;;;;;;16.40;98.30;;;;;;7304786;19;9222;-69
2023/10/12 10:33:38;;;;;;;;;;;16.60;99.90;;;;;;7311128;19;9402;-68
2023/10/12 10:36:17;;;;;;;;;;;16.60;94.30;;;;;;7314972;19;9650;-69
2023/10/12 10:38:54;;;;;;;;;;;16.70;95.80;;;;;;7316529;19;9272;-70
2023/10/12 10:41:38;;;;;;;;;;;16.80;93.20;;;;;;7315161;19;9535;-71
2023/10/12 10:44:13;;;;;;;;;;;16.60;90.60;;;;;;7305588;19;9690;-70
2023/10/12 10:46:44;;;;;;;;;;;16.50;94.90;;;;;;7312268;19;9633;-68
2023/10/12 10:49:19;;;;;;;;;;;16.50;96.90;;;;;;7315373;19;9583;-71
2023/10/12 10:52:02;;;;;;;;;;;16.60;93.10;;;;;;7309232;19;10310;-68
2023/10/12 10:54:33;;;;;;;;;;;16.70;97.20;;;;;;7318994;19;10128;-69
2023/10/12 10:57:14;;;;;;;;;;;16.90;94.40;;;;;;7307427;19;9473;-69
2023/10/12 10:59:44;;;;;;;;;;;16.90;92.90;;;;;;7314590;19;9249;-70
2023/10/12 11:02:14;;;;;;;;;;;16.80;86.20;;;;;;7321144;19;10715;-67
2023/10/12 11:04:46;;;;;;;;;;;16.90;89.00;;;;;;7321552;19;9445;-67
2023/10/12 11:07:17;;;;;;;;;;;16.80;89.50;;;;;;7323985;19;9210;-69
2023/10/12 11:12:31;;;;;;;;;;;16.60;92.30;;;;;;7322251;19;9475;-68
2023/10/12 11:15:00;;;;;;;;;;;16.70;93.10;;;;;;7321672;19;9476;-69
2023/10/12 11:17:35;;;;;;;;;;;16.60;90.40;;;;;;7317082;19;9224;-69
2023/10/12 11:20:26;;;;;;;;;;;16.50;90.90;;;;;;7320761;19;9441;-69
2023/10/12 11:22:55;;;;;;;;;;;16.50;91.90;;;;;;7319090;19;9186;-69
2023/10/12 11:25:26;;;;;;;;;;;16.50;91.60;;;;;;7319066;19;9257;-69
2023/10/12 11:27:56;;;;;;;;;;;16.50;92.80;;;;;;7306427;19;9268;-72
2023/10/12 11:30:35;;;;;;;;;;;16.50;94.10;;;;;;7318373;19;9528;-73
2023/10/12 11:33:09;;;;;;;;;;;16.60;93.60;;;;;;7318078;19;9165;-72
2023/10/12 11:35:43;;;;;;;;;;;16.60;95.30;;;;;;7313662;19;9471;-72
2023/10/12 11:38:17;;;;;;;;;;;16.60;96.10;;;;;;7320945;19;9233;-73
2023/10/12 11:40:52;;;;;;;;;;;16.70;96.30;;;;;;7318199;19;11060;-73
2023/10/12 11:43:21;;;;;;;;;;;16.70;93.60;;;;;;7306113;19;9461;-71
2023/10/12 11:46:01;;;;;;;;;;;16.70;92.30;;;;;;7307908;19;9131;-73
2023/10/12 11:48:31;;;;;;;;;;;16.60;86.10;;;;;;7315854;19;9287;-72
2023/10/12 11:51:11;;;;;;;;;;;16.60;91.20;;;;;;7317936;19;10845;-72
2023/10/12 11:53:41;;;;;;;;;;;16.60;90.20;;;;;;7318501;19;9441;-72
2023/10/12 11:56:13;;;;;;;;;;;16.60;89.30;;;;;;7319415;19;10067;-72
2023/10/12 11:58:47;;;;;;;;;;;16.40;87.00;;;;;;7319328;19;9267;-72
2023/10/12 12:01:18;;;;;;;;;;;16.30;93.10;;;;;;7317471;19;9248;-72
2023/10/12 12:03:48;;;;;;;;;;;16.40;93.80;;;;;;7306581;19;9458;-72
2023/10/12 12:06:21;;;;;;;;;;;16.50;90.60;;;;;;7314735;19;9629;-73
2023/10/12 12:08:56;;;;;;;;;;;16.50;92.90;;;;;;7318854;19;10381;-72
2023/10/12 12:11:31;;;;;;;;;;;16.60;92.40;;;;;;7315723;19;9405;-73
2023/10/12 12:14:00;;;;;;;;;;;16.60;86.00;;;;;;7178453;19;2755577;-73
2023/10/12 12:16:28;;;;;;;;;;;16.50;89.50;;;;;;7319560;19;9403;-72
2023/10/12 12:18:58;;;;;;;;;;;16.40;91.20;;;;;;7321915;19;9324;-72
2023/10/12 12:21:34;;;;;;;;;;;16.40;90.30;;;;;;7316336;19;10736;-73
2023/10/12 12:24:21;;;;;;;;;;;16.30;93.00;;;;;;7317934;19;9495;-73
2023/10/12 12:26:52;;;;;;;;;;;16.10;91.20;;;;;;7321827;19;9200;-72
2023/10/12 12:29:25;;;;;;;;;;;16.00;98.10;;;;;;7321454;19;9479;-73
2023/10/12 12:31:54;;;;;;;;;;;15.90;94.50;;;;;;7318215;19;10253;-72
2023/10/12 12:34:38;;;;;;;;;;;15.90;98.10;;;;;;7318469;19;9266;-72
2023/10/12 12:37:10;;;;;;;;;;;15.80;95.90;;;;;;7321994;19;9132;-72
2023/10/12 12:39:39;;;;;;;;;;;15.70;97.90;;;;;;7320369;19;9257;-73
2023/10/12 12:42:10;;;;;;;;;;;15.70;99.10;;;;;;7320560;19;9170;-73
2023/10/12 12:44:40;;;;;;;;;;;15.70;98.20;;;;;;7321719;19;9523;-72
2023/10/12 12:47:09;;;;;;;;;;;15.70;96.60;;;;;;7316196;19;9112;-72
2023/10/12 12:49:38;;;;;;;;;;;15.60;98.80;;;;;;7320009;19;9385;-73
2023/10/12 12:52:11;;;;;;;;;;;15.60;99.90;;;;;;7316035;19;9559;-72
2023/10/12 12:54:40;;;;;;;;;;;15.50;99.90;;;;;;7318050;19;9487;-72
2023/10/12 12:57:10;;;;;;;;;;;15.50;99.90;;;;;;7316011;19;9110;-73
2023/10/12 12:59:40;;;;;;;;;;;15.50;98.80;;;;;;7320331;19;9289;-72
2023/10/12 13:02:09;;;;;;;;;;;15.50;99.90;;;;;;7319265;19;9246;-73
2023/10/12 13:04:39;;;;;;;;;;;15.40;99.90;;;;;;7314163;19;10315;-72
2023/10/12 13:07:14;;;;;;;;;;;15.40;99.90;;;;;;7315097;19;9280;-73
2023/10/12 13:09:47;;;;;;;;;;;15.40;99.90;;;;;;7318099;19;9487;-73
2023/10/12 13:12:16;;;;;;;;;;;15.40;99.90;;;;;;7317811;19;9268;-73
2023/10/12 13:14:45;;;;;;;;;;;15.30;99.90;;;;;;7321248;19;9461;-72
2023/10/12 13:17:16;;;;;;;;;;;15.30;99.90;;;;;;7319390;19;9463;-73
2023/10/12 13:19:47;;;;;;;;;;;15.40;99.90;;;;;;7319740;19;9614;-74
2023/10/12 13:22:19;;;;;;;;;;;15.40;99.90;;;;;;7320750;19;9089;-73
2023/10/12 13:24:49;;;;;;;;;;;15.30;99.90;;;;;;7320030;19;10196;-72
2023/10/12 13:27:21;;;;;;;;;;;15.30;99.90;;;;;;7318360;19;9419;-72
2023/10/12 13:29:50;;;;;;;;;;;15.30;99.90;;;;;;7317158;19;9502;-73
2023/10/12 13:32:21;;;;;;;;;;;15.30;99.90;;;;;;7314353;19;9415;-73
2023/10/12 13:34:51;;;;;;;;;;;15.30;99.90;;;;;;7312782;19;9132;-73
2023/10/12 13:37:23;;;;;;;;;;;15.30;99.90;;;;;;7320095;19;9233;-72
2023/10/12 13:39:52;;;;;;;;;;;15.30;99.90;;;;;;7319006;19;9320;-72
2023/10/12 13:42:21;;;;;;;;;;;15.30;99.90;;;;;;7315786;19;10333;-72
2023/10/12 13:44:50;;;;;;;;;;;15.30;99.90;;;;;;7319763;19;9494;-72
2023/10/12 13:47:19;;;;;;;;;;;15.30;99.90;;;;;;7314714;19;9467;-72
2023/10/12 13:49:48;;;;;;;;;;;15.30;99.90;;;;;;7318397;19;9471;-72
2023/10/12 13:52:17;;;;;;;;;;;15.30;99.90;;;;;;7316428;19;9382;-73
2023/10/12 13:54:52;;;;;;;;;;;15.20;99.90;;;;;;7317859;19;9289;-72
2023/10/12 13:57:21;;;;;;;;;;;15.20;99.90;;;;;;7307374;19;9518;-72
2023/10/12 13:59:50;;;;;;;;;;;15.20;99.90;;;;;;7314899;19;9242;-72
2023/10/12 14:02:19;;;;;;;;;;;15.20;99.90;;;;;;7299984;19;9857;-71
2023/10/12 14:04:49;;;;;;;;;;;15.20;99.90;;;;;;7313032;19;9477;-72
2023/10/12 14:07:18;;;;;;;;;;;15.20;99.90;;;;;;7309797;19;9671;-72
2023/10/12 14:09:50;;;;;;;;;;;15.20;99.90;;;;;;7319338;19;9234;-72
2023/10/12 14:12:19;;;;;;;;;;;15.20;99.90;;;;;;7315287;19;10259;-72
2023/10/12 14:14:49;;;;;;;;;;;15.20;99.90;;;;;;7319097;19;9261;-72
2023/10/12 14:17:17;;;;;;;;;;;15.20;99.90;;;;;;7318303;19;9249;-72
2023/10/12 14:19:50;;;;;;;;;;;15.30;99.90;;;;;;7316703;19;9198;-72
2023/10/12 14:22:19;;;;;;;;;;;15.30;99.90;;;;;;7309824;19;9538;-72
2023/10/12 14:24:53;;;;;;;;;;;15.30;99.90;;;;;;7315309;19;9298;-72
2023/10/12 14:27:22;;;;;;;;;;;15.30;99.90;;;;;;7318068;19;9266;-72
2023/10/12 14:29:52;;;;;;;;;;;15.30;99.90;;;;;;7314841;19;9351;-72
2023/10/12 14:32:23;;;;;;;;;;;15.40;99.90;;;;;;7313864;19;9237;-72
2023/10/12 14:34:52;;;;;;;;;;;15.40;99.90;;;;;;7317814;19;9139;-72
2023/10/12 14:37:23;;;;;;;;;;;15.30;99.90;;;;;;7314189;19;9525;-72
2023/10/12 14:39:55;;;;;;;;;;;15.30;99.90;;;;;;7315823;19;9473;-72
2023/10/12 14:42:23;;;;;;;;;;;15.20;99.90;;;;;;7311504;19;10222;-72
2023/10/12 14:44:53;;;;;;;;;;;15.10;99.90;;;;;;7316791;19;9185;-72
2023/10/12 14:47:22;;;;;;;;;;;15.10;99.90;;;;;;7316184;19;10488;-72
2023/10/12 14:49:51;;;;;;;;;;;15.00;99.90;;;;;;7317051;19;9382;-72
2023/10/12 14:52:22;;;;;;;;;;;15.00;99.90;;;;;;7317442;19;9413;-72
2023/10/12 14:54:54;;;;;;;;;;;14.90;99.90;;;;;;7313731;19;10088;-72
2023/10/12 14:57:24;;;;;;;;;;;14.90;99.90;;;;;;7309039;19;9394;-72
2023/10/12 14:59:53;;;;;;;;;;;14.80;99.90;;;;;;7310079;19;9273;-72
2023/10/12 15:02:22;;;;;;;;;;;14.80;99.90;;;;;;7311367;19;9434;-72
2023/10/12 15:04:52;;;;;;;;;;;14.70;99.90;;;;;;7313145;19;9446;-71
2023/10/12 15:07:20;;;;;;;;;;;14.60;99.90;;;;;;7303494;19;9261;-72
2023/10/12 15:09:51;;;;;;;;;;;14.60;99.90;;;;;;7314353;19;9325;-70
2023/10/12 15:12:23;;;;;;;;;;;14.60;99.90;;;;;;7308276;19;9290;-71
2023/10/12 15:14:54;;;;;;;;;;;14.60;99.90;;;;;;7311520;19;9363;-70
2023/10/12 15:17:23;;;;;;;;;;;14.40;99.90;;;;;;7313245;19;9492;-71
2023/10/12 15:19:53;;;;;;;;;;;14.40;99.90;;;;;;7314828;19;9286;-71
2023/10/12 15:22:21;;;;;;;;;;;14.30;99.90;;;;;;7316685;19;9235;-71
2023/10/12 15:24:52;;;;;;;;;;;14.20;99.90;;;;;;7311300;19;9488;-69
2023/10/12 15:27:24;;;;;;;;;;;14.10;99.90;;;;;;7302373;19;9134;-70
2023/10/12 15:29:52;;;;;;;;;;;14.10;99.90;;;;;;7313009;19;9733;-72
2023/10/12 15:32:21;;;;;;;;;;;14.00;99.90;;;;;;7309281;19;9336;-72
2023/10/12 15:34:50;;;;;;;;;;;14.00;99.90;;;;;;7308850;19;9411;-72
2023/10/12 15:37:23;;;;;;;;;;;13.90;99.90;;;;;;7310762;19;9293;-72
2023/10/12 15:39:52;;;;;;;;;;;13.90;99.90;;;;;;7311183;19;9647;-69
2023/10/12 15:42:23;;;;;;;;;;;13.90;99.90;;;;;;7318251;19;10032;-70